EFHK/HEL METAR and TAF weather

Enter ICAO airport designator
Station Type Date Time Source
EFHK METAR 2019/10/21 22:20 UTC NOAA

EFHK 212220Z VRB02KT 9999 FEW020 BKN026 02/M00 Q1019 NOSIG


Station Type Date Time Source
EFHK Decoded METAR 2019/10/21 22:20 UTC NOAA

Helsinki-Vantaa, Finland (EFHK) 60-19N 024-58E 56M
Oct 21, 2019 - 06:20 PM EDT / 2019.10.21 2220 UTC
Wind: Variable at 2 MPH (2 KT):0
Visibility: greater than 7 mile(s):0
Sky conditions: mostly cloudy
Temperature: 35 F (2 C)
Dew Point: 32 F (0 C)
Relative Humidity: 86%
Pressure (altimeter): 30.09 in. Hg (1019 hPa)
ob: EFHK 212220Z VRB02KT 9999 FEW020 BKN026 02/M00 Q1019 NOSIG
cycle: 22

Station Type Date Time Source
EFHK TAF 2019/10/21 22:59 UTC NOAA

TAF
AMD EFHK 212149Z 2122/2221 28006KT 9999 BKN015
TEMPO 2122/2205 BKN012
BECMG 2205/2207 22012KT 4000 -DZ BKN006
BECMG 2212/2214 9999 NSW BKN012
TEMPO 2214/2221 24015G25KT BKN015

Example: see airport list